sensor_id;sensor_type;location;lat;lon;timestamp;pressure;altitude;pressure_sealevel;temperature;humidity
29315;BME280;16320;53.954;9.506;2023-09-12T00:01:49;101321.72;;;19.90;100.00
29315;BME280;16320;53.954;9.506;2023-09-12T00:04:54;101323.41;;;19.91;100.00
29315;BME280;16320;53.954;9.506;2023-09-12T00:07:58;101335.78;;;19.92;100.00
29315;BME280;16320;53.954;9.506;2023-09-12T00:11:07;101337.72;;;19.90;100.00
29315;BME280;16320;53.954;9.506;2023-09-12T00:14:17;101337.84;;;19.89;100.00
29315;BME280;16320;53.954;9.506;2023-09-12T00:17:22;101343.78;;;19.92;100.00
29315;BME280;16320;53.954;9.506;2023-09-12T00:20:26;101350.06;;;19.91;100.00
29315;BME280;16320;53.954;9.506;2023-09-12T00:23:31;101364.38;;;19.90;100.00
29315;BME280;16320;53.954;9.506;2023-09-12T00:26:36;101366.31;;;19.88;100.00
29315;BME280;16320;53.954;9.506;2023-09-12T00:29:40;101382.28;;;19.88;100.00
29315;BME280;16320;53.954;9.506;2023-09-12T00:32:46;101394.91;;;19.86;100.00
29315;BME280;16320;53.954;9.506;2023-09-12T00:35:50;101403.41;;;19.80;100.00
29315;BME280;16320;53.954;9.506;2023-09-12T00:38:54;101410.69;;;19.78;100.00
29315;BME280;16320;53.954;9.506;2023-09-12T00:41:59;101409.97;;;19.76;100.00
29315;BME280;16320;53.954;9.506;2023-09-12T00:45:04;101414.19;;;19.79;100.00
29315;BME280;16320;53.954;9.506;2023-09-12T00:48:09;101422.91;;;19.81;100.00
29315;BME280;16320;53.954;9.506;2023-09-12T00:51:15;101432.72;;;19.80;100.00
29315;BME280;16320;53.954;9.506;2023-09-12T00:54:22;101435.50;;;19.79;100.00
29315;BME280;16320;53.954;9.506;2023-09-12T00:57:26;101434.41;;;19.81;100.00
29315;BME280;16320;53.954;9.506;2023-09-12T01:00:31;101409.97;;;19.76;100.00
29315;BME280;16320;53.954;9.506;2023-09-12T01:03:35;101397.94;;;19.82;100.00
29315;BME280;16320;53.954;9.506;2023-09-12T01:06:40;101412.84;;;19.84;100.00
29315;BME280;16320;53.954;9.506;2023-09-12T01:09:45;101409.72;;;19.79;100.00
29315;BME280;16320;53.954;9.506;2023-09-12T01:12:50;101432.22;;;19.86;100.00
29315;BME280;16320;53.954;9.506;2023-09-12T01:15:55;101442.91;;;19.86;100.00
29315;BME280;16320;53.954;9.506;2023-09-12T01:18:59;101439.50;;;19.84;100.00
29315;BME280;16320;53.954;9.506;2023-09-12T01:26:41;101442.19;;;19.84;100.00
29315;BME280;16320;53.954;9.506;2023-09-12T01:29:51;101445.56;;;19.86;100.00
29315;BME280;16320;53.954;9.506;2023-09-12T01:32:57;101445.44;;;19.88;100.00
29315;BME280;16320;53.954;9.506;2023-09-12T01:36:03;101440.22;;;19.86;100.00
29315;BME280;16320;53.954;9.506;2023-09-12T01:39:07;101434.41;;;19.81;100.00
29315;BME280;16320;53.954;9.506;2023-09-12T01:42:16;101440.34;;;19.85;100.00
29315;BME280;16320;53.954;9.506;2023-09-12T01:45:22;101443.13;;;19.83;100.00
29315;BME280;16320;53.954;9.506;2023-09-12T01:48:33;101440.94;;;19.77;100.00
29315;BME280;16320;53.954;9.506;2023-09-12T01:51:39;101437.53;;;19.75;100.00
29315;BME280;16320;53.954;9.506;2023-09-12T01:54:44;101436.22;;;19.69;100.00
29315;BME280;16320;53.954;9.506;2023-09-12T01:57:49;101431.59;;;19.71;100.00
29315;BME280;16320;53.954;9.506;2023-09-12T02:00:54;101447.88;;;19.80;100.00
29315;BME280;16320;53.954;9.506;2023-09-12T02:03:59;101458.16;;;19.84;100.00
29315;BME280;16320;53.954;9.506;2023-09-12T02:07:03;101490.88;;;19.86;100.00
29315;BME280;16320;53.954;9.506;2023-09-12T02:10:08;101486.66;;;19.84;100.00
29315;BME280;16320;53.954;9.506;2023-09-12T02:13:14;101493.78;;;19.83;100.00
29315;BME280;16320;53.954;9.506;2023-09-12T02:16:18;101493.06;;;19.81;100.00
29315;BME280;16320;53.954;9.506;2023-09-12T02:19:22;101487.97;;;19.78;100.00
29315;BME280;16320;53.954;9.506;2023-09-12T02:22:27;101500.91;;;19.71;100.00
29315;BME280;16320;53.954;9.506;2023-09-12T02:25:31;101519.25;;;19.76;100.00
29315;BME280;16320;53.954;9.506;2023-09-12T02:28:36;101533.50;;;19.75;100.00
29315;BME280;16320;53.954;9.506;2023-09-12T02:31:40;101532.78;;;19.73;100.00
29315;BME280;16320;53.954;9.506;2023-09-12T02:34:45;101535.56;;;19.71;100.00
29315;BME280;16320;53.954;9.506;2023-09-12T02:37:49;101538.34;;;19.70;100.00
29315;BME280;16320;53.954;9.506;2023-09-12T02:40:54;101536.63;;;19.69;100.00
29315;BME280;16320;53.954;9.506;2023-09-12T02:44:00;101541.22;;;19.67;100.00
29315;BME280;16320;53.954;9.506;2023-09-12T02:47:05;101551.91;;;19.67;100.00
29315;BME280;16320;53.954;9.506;2023-09-12T02:50:10;101561.84;;;19.65;100.00
29315;BME280;16320;53.954;9.506;2023-09-12T02:53:14;101558.69;;;19.60;100.00
29315;BME280;16320;53.954;9.506;2023-09-12T02:56:19;101571.13;;;19.59;100.00
29315;BME280;16320;53.954;9.506;2023-09-12T02:59:23;101583.50;;;19.60;100.00
29315;BME280;16320;53.954;9.506;2023-09-12T03:02:28;101582.03;;;19.56;100.00
29315;BME280;16320;53.954;9.506;2023-09-12T03:05:33;101592.56;;;19.57;100.00
29315;BME280;16320;53.954;9.506;2023-09-12T03:08:37;101584.56;;;19.57;100.00
29315;BME280;16320;53.954;9.506;2023-09-12T03:11:42;101582.78;;;19.58;100.00
29315;BME280;16320;53.954;9.506;2023-09-12T03:14:46;101584.56;;;19.57;100.00
29315;BME280;16320;53.954;9.506;2023-09-12T03:17:51;101585.56;;;19.56;100.00
29315;BME280;16320;53.954;9.506;2023-09-12T03:20:55;101582.13;;;19.54;100.00
29315;BME280;16320;53.954;9.506;2023-09-12T03:24:00;101580.47;;;19.53;100.00
29315;BME280;16320;53.954;9.506;2023-09-12T03:27:04;101573.19;;;19.55;100.00
29315;BME280;16320;53.954;9.506;2023-09-12T03:30:10;101571.75;;;19.51;100.00
29315;BME280;16320;53.954;9.506;2023-09-12T03:33:14;101557.91;;;19.46;100.00
29315;BME280;16320;53.954;9.506;2023-09-12T03:36:19;101559.38;;;19.50;100.00
29315;BME280;16320;53.954;9.506;2023-09-12T03:39:24;101567.84;;;19.55;100.00
29315;BME280;16320;53.954;9.506;2023-09-12T03:42:28;101586.41;;;19.57;100.00
29315;BME280;16320;53.954;9.506;2023-09-12T03:45:45;101586.28;;;19.58;100.00
29315;BME280;16320;53.954;9.506;2023-09-12T03:48:50;101575.84;;;19.55;100.00
29315;BME280;16320;53.954;9.506;2023-09-12T03:51:54;101570.25;;;19.47;100.00
29315;BME280;16320;53.954;9.506;2023-09-12T03:54:59;101590.88;;;19.56;100.00
29315;BME280;16320;53.954;9.506;2023-09-12T03:58:05;101597.88;;;19.57;100.00
29315;BME280;16320;53.954;9.506;2023-09-12T04:01:10;101588.22;;;19.56;100.00
29315;BME280;16320;53.954;9.506;2023-09-12T04:04:15;101608.56;;;19.57;100.00
29315;BME280;16320;53.954;9.506;2023-09-12T04:07:19;101619.44;;;19.54;100.00
29315;BME280;16320;53.954;9.506;2023-09-12T04:10:24;101622.09;;;19.54;100.00
29315;BME280;16320;53.954;9.506;2023-09-12T04:13:29;101626.72;;;19.52;100.00
29315;BME280;16320;53.954;9.506;2023-09-12T04:16:33;101619.69;;;19.51;100.00
29315;BME280;16320;53.954;9.506;2023-09-12T04:19:38;101628.41;;;19.53;100.00
29315;BME280;16320;53.954;9.506;2023-09-12T04:22:43;101617.03;;;19.51;100.00
29315;BME280;16320;53.954;9.506;2023-09-12T04:25:48;101616.28;;;19.49;100.00
29315;BME280;16320;53.954;9.506;2023-09-12T04:28:52;101620.66;;;19.50;100.00
29315;BME280;16320;53.954;9.506;2023-09-12T04:31:56;101613.72;;;19.48;100.00
29315;BME280;16320;53.954;9.506;2023-09-12T04:35:04;101627.81;;;19.50;100.00
29315;BME280;16320;53.954;9.506;2023-09-12T04:38:09;101630.59;;;19.48;100.00
29315;BME280;16320;53.954;9.506;2023-09-12T04:41:13;101633.13;;;19.50;100.00
29315;BME280;16320;53.954;9.506;2023-09-12T04:44:21;101634.94;;;19.49;100.00
29315;BME280;16320;53.954;9.506;2023-09-12T04:47:25;101636.03;;;19.47;100.00
29315;BME280;16320;53.954;9.506;2023-09-12T04:50:31;101636.13;;;19.45;100.00
29315;BME280;16320;53.954;9.506;2023-09-12T04:53:36;101642.41;;;19.44;100.00
29315;BME280;16320;53.954;9.506;2023-09-12T04:56:40;101640.75;;;19.43;100.00
29315;BME280;16320;53.954;9.506;2023-09-12T04:59:44;101647.03;;;19.42;100.00
29315;BME280;16320;53.954;9.506;2023-09-12T05:02:49;101639.97;;;19.41;100.00
29315;BME280;16320;53.954;9.506;2023-09-12T05:05:53;101647.03;;;19.42;100.00
29315;BME280;16320;53.954;9.506;2023-09-12T05:08:58;101652.47;;;19.41;100.00
29315;BME280;16320;53.954;9.506;2023-09-12T05:12:03;101648.97;;;19.40;100.00
29315;BME280;16320;53.954;9.506;2023-09-12T05:15:08;101652.56;;;19.39;100.00
29315;BME280;16320;53.954;9.506;2023-09-12T05:18:13;101650.88;;;19.38;100.00
29315;BME280;16320;53.954;9.506;2023-09-12T05:21:18;101657.19;;;19.37;100.00
29315;BME280;16320;53.954;9.506;2023-09-12T05:24:22;101658.13;;;19.36;100.00
29315;BME280;16320;53.954;9.506;2023-09-12T05:27:27;101654.50;;;19.37;100.00
29315;BME280;16320;53.954;9.506;2023-09-12T05:30:31;101650.03;;;19.37;100.00
29315;BME280;16320;53.954;9.506;2023-09-12T05:33:36;101661.53;;;19.38;100.00
29315;BME280;16320;53.954;9.506;2023-09-12T05:36:41;101670.28;;;19.40;100.00
29315;BME280;16320;53.954;9.506;2023-09-12T05:39:45;101686.25;;;19.40;100.00
29315;BME280;16320;53.954;9.506;2023-09-12T05:42:49;101684.31;;;19.42;100.00
29315;BME280;16320;53.954;9.506;2023-09-12T05:45:55;101687.81;;;19.43;100.00
29315;BME280;16320;53.954;9.506;2023-09-12T05:49:02;101683.38;;;19.43;100.00
29315;BME280;16320;53.954;9.506;2023-09-12T05:52:06;101683.38;;;19.43;100.00
29315;BME280;16320;53.954;9.506;2023-09-12T05:55:11;101684.09;;;19.45;100.00
29315;BME280;16320;53.954;9.506;2023-09-12T05:58:15;101681.53;;;19.44;100.00
29315;BME280;16320;53.954;9.506;2023-09-12T06:01:19;101682.16;;;19.47;100.00
29315;BME280;16320;53.954;9.506;2023-09-12T06:04:24;101691.88;;;19.48;100.00
29315;BME280;16320;53.954;9.506;2023-09-12T06:07:29;101688.00;;;19.52;100.00
29315;BME280;16320;53.954;9.506;2023-09-12T06:10:34;101692.38;;;19.53;100.00
29315;BME280;16320;53.954;9.506;2023-09-12T06:13:40;101689.69;;;19.53;100.00
29315;BME280;16320;53.954;9.506;2023-09-12T06:16:44;101685.31;;;19.52;100.00
29315;BME280;16320;53.954;9.506;2023-09-12T06:19:48;101694.91;;;19.55;100.00
29315;BME280;16320;53.954;9.506;2023-09-12T06:22:55;101703.03;;;19.53;100.00
29315;BME280;16320;53.954;9.506;2023-09-12T06:26:00;101696.22;;;19.49;100.00
29315;BME280;16320;53.954;9.506;2023-09-12T06:29:05;101696.84;;;19.53;100.00
29315;BME280;16320;53.954;9.506;2023-09-12T06:32:09;101695.97;;;19.52;100.00
29315;BME280;16320;53.954;9.506;2023-09-12T06:35:14;101697.69;;;19.53;100.00
29315;BME280;16320;53.954;9.506;2023-09-12T06:38:20;101718.16;;;19.53;100.00
29315;BME280;16320;53.954;9.506;2023-09-12T06:41:26;101717.53;;;19.49;100.00
29315;BME280;16320;53.954;9.506;2023-09-12T06:44:30;101722.00;;;19.49;100.00
29315;BME280;16320;53.954;9.506;2023-09-12T06:47:35;101716.69;;;19.49;100.00
29315;BME280;16320;53.954;9.506;2023-09-12T06:50:39;101719.97;;;19.52;100.00
29315;BME280;16320;53.954;9.506;2023-09-12T06:53:44;101726.91;;;19.55;100.00
29315;BME280;16320;53.954;9.506;2023-09-12T06:56:48;101720.69;;;19.54;100.00
29315;BME280;16320;53.954;9.506;2023-09-12T06:59:53;101725.81;;;19.57;100.00
29315;BME280;16320;53.954;9.506;2023-09-12T07:02:58;101732.84;;;19.58;100.00
29315;BME280;16320;53.954;9.506;2023-09-12T07:06:03;101729.22;;;19.60;100.00
29315;BME280;16320;53.954;9.506;2023-09-12T07:09:08;101729.84;;;19.63;100.00
29315;BME280;16320;53.954;9.506;2023-09-12T07:12:13;101733.78;;;19.57;100.00
29315;BME280;16320;53.954;9.506;2023-09-12T07:15:17;101729.66;;;19.53;100.00
29315;BME280;16320;53.954;9.506;2023-09-12T07:18:21;101733.06;;;19.55;100.00
29315;BME280;16320;53.954;9.506;2023-09-12T07:21:26;101730.91;;;19.61;100.00
29315;BME280;16320;53.954;9.506;2023-09-12T07:24:31;101733.47;;;19.62;100.00
29315;BME280;16320;53.954;9.506;2023-09-12T07:27:35;101730.41;;;19.55;100.00
29315;BME280;16320;53.954;9.506;2023-09-12T07:30:40;101732.63;;;19.62;100.00
29315;BME280;16320;53.954;9.506;2023-09-12T07:33:45;101720.88;;;19.64;100.00
29315;BME280;16320;53.954;9.506;2023-09-12T07:36:51;101725.75;;;19.70;100.00
29315;BME280;16320;53.954;9.506;2023-09-12T07:39:55;101720.94;;;19.75;100.00
29315;BME280;16320;53.954;9.506;2023-09-12T07:43:00;101717.72;;;19.83;100.00
29315;BME280;16320;53.954;9.506;2023-09-12T07:46:04;101723.78;;;19.85;100.00
29315;BME280;16320;53.954;9.506;2023-09-12T07:49:09;101718.97;;;19.90;100.00
29315;BME280;16320;53.954;9.506;2023-09-12T07:52:13;101714.59;;;19.89;100.00
29315;BME280;16320;53.954;9.506;2023-09-12T07:55:18;101710.47;;;19.97;100.00
29315;BME280;16320;53.954;9.506;2023-09-12T07:58:22;101714.84;;;19.98;100.00
29315;BME280;16320;53.954;9.506;2023-09-12T08:01:27;101715.34;;;20.03;100.00
29315;BME280;16320;53.954;9.506;2023-09-12T08:04:32;101712.56;;;20.04;100.00
29315;BME280;16320;53.954;9.506;2023-09-12T08:07:38;101709.78;;;20.06;100.00
29315;BME280;16320;53.954;9.506;2023-09-12T08:10:42;101704.44;;;20.06;100.00
29315;BME280;16320;53.954;9.506;2023-09-12T08:13:49;101706.41;;;20.04;100.00
29315;BME280;16320;53.954;9.506;2023-09-12T08:16:54;101696.72;;;20.14;100.00
29315;BME280;16320;53.954;9.506;2023-09-12T08:20:00;101694.31;;;20.22;100.00
29315;BME280;16320;53.954;9.506;2023-09-12T08:23:05;101695.53;;;20.29;100.00
29315;BME280;16320;53.954;9.506;2023-09-12T08:26:10;101672.00;;;20.35;100.00
29315;BME280;16320;53.954;9.506;2023-09-12T08:29:15;101645.34;;;20.35;100.00
29315;BME280;16320;53.954;9.506;2023-09-12T08:32:20;101628.50;;;20.34;100.00
29315;BME280;16320;53.954;9.506;2023-09-12T08:35:24;101590.63;;;20.40;100.00
29315;BME280;16320;53.954;9.506;2023-09-12T08:38:31;101572.31;;;20.47;100.00
29315;BME280;16320;53.954;9.506;2023-09-12T08:41:35;101535.81;;;20.47;100.00
29315;BME280;16320;53.954;9.506;2023-09-12T08:44:42;101499.25;;;20.59;100.00
29315;BME280;16320;53.954;9.506;2023-09-12T08:47:52;101467.34;;;20.69;100.00
29315;BME280;16320;53.954;9.506;2023-09-12T08:50:57;101415.66;;;20.70;100.00
29315;BME280;16320;53.954;9.506;2023-09-12T08:54:03;101382.25;;;20.76;100.00
29315;BME280;16320;53.954;9.506;2023-09-12T08:57:11;101348.56;;;20.75;100.00
29315;BME280;16320;53.954;9.506;2023-09-12T09:00:16;101329.13;;;20.73;100.00
29315;BME280;16320;53.954;9.506;2023-09-12T09:03:21;101320.03;;;20.75;100.00
29315;BME280;16320;53.954;9.506;2023-09-12T09:06:27;101321.06;;;20.84;100.00
29315;BME280;16320;53.954;9.506;2023-09-12T09:09:32;101302.09;;;20.87;100.00
29315;BME280;16320;53.954;9.506;2023-09-12T09:12:40;101302.03;;;20.98;100.00
29315;BME280;16320;53.954;9.506;2023-09-12T09:15:44;101293.63;;;21.03;100.00
29315;BME280;16320;53.954;9.506;2023-09-12T09:19:04;101279.81;;;20.98;100.00
29315;BME280;16320;53.954;9.506;2023-09-12T09:22:14;101262.13;;;21.07;100.00
29315;BME280;16320;53.954;9.506;2023-09-12T09:25:19;101249.38;;;21.20;100.00
29315;BME280;16320;53.954;9.506;2023-09-12T09:28:23;101253.47;;;21.24;100.00
29315;BME280;16320;53.954;9.506;2023-09-12T09:31:29;101248.41;;;21.21;100.00
29315;BME280;16320;53.954;9.506;2023-09-12T09:34:39;101260.19;;;21.18;100.00
29315;BME280;16320;53.954;9.506;2023-09-12T09:37:43;101233.28;;;21.00;100.00
29315;BME280;16320;53.954;9.506;2023-09-12T09:40:48;101231.09;;;21.06;100.00
29315;BME280;16320;53.954;9.506;2023-09-12T09:43:52;101244.72;;;21.02;100.00
29315;BME280;16320;53.954;9.506;2023-09-12T09:47:01;101272.25;;;21.03;100.00
29315;BME280;16320;53.954;9.506;2023-09-12T09:50:14;101275.63;;;21.05;100.00
29315;BME280;16320;53.954;9.506;2023-09-12T09:53:32;101274.78;;;21.05;100.00
29315;BME280;16320;53.954;9.506;2023-09-12T09:56:49;101265.38;;;21.10;100.00
29315;BME280;16320;53.954;9.506;2023-09-12T09:59:54;101268.22;;;21.18;100.00
29315;BME280;16320;53.954;9.506;2023-09-12T10:02:59;101261.06;;;21.19;100.00
29315;BME280;16320;53.954;9.506;2023-09-12T10:06:08;101281.44;;;21.20;100.00
29315;BME280;16320;53.954;9.506;2023-09-12T10:09:15;101285.53;;;21.24;100.00
29315;BME280;16320;53.954;9.506;2023-09-12T10:12:21;101292.28;;;21.28;100.00
29315;BME280;16320;53.954;9.506;2023-09-12T10:15:30;101281.91;;;21.25;100.00
29315;BME280;16320;53.954;9.506;2023-09-12T10:18:48;101250.94;;;21.23;100.00
29315;BME280;16320;53.954;9.506;2023-09-12T10:22:10;101243.78;;;21.33;100.00
29315;BME280;16320;53.954;9.506;2023-09-12T10:25:17;101250.00;;;21.33;100.00
29315;BME280;16320;53.954;9.506;2023-09-12T10:28:21;101262.78;;;21.39;100.00
29315;BME280;16320;53.954;9.506;2023-09-12T10:31:27;101242.25;;;21.30;100.00
29315;BME280;16320;53.954;9.506;2023-09-12T10:34:34;101245.38;;;21.35;100.00
29315;BME280;16320;53.954;9.506;2023-09-12T10:37:41;101247.88;;;21.27;100.00
29315;BME280;16320;53.954;9.506;2023-09-12T10:40:48;101249.50;;;21.18;100.00
29315;BME280;16320;53.954;9.506;2023-09-12T10:43:54;101249.22;;;21.12;100.00
29315;BME280;16320;53.954;9.506;2023-09-12T10:47:02;101235.59;;;21.15;100.00
29315;BME280;16320;53.954;9.506;2023-09-12T10:50:09;101248.28;;;21.23;100.00
29315;BME280;16320;53.954;9.506;2023-09-12T10:53:15;101252.94;;;21.30;100.00
29315;BME280;16320;53.954;9.506;2023-09-12T10:56:21;101272.22;;;21.34;100.00
29315;BME280;16320;53.954;9.506;2023-09-12T10:59:25;101264.75;;;21.37;100.00
29315;BME280;16320;53.954;9.506;2023-09-12T11:02:37;101270.13;;;21.47;100.00
29315;BME280;16320;53.954;9.506;2023-09-12T11:05:53;101274.28;;;21.51;100.00
29315;BME280;16320;53.954;9.506;2023-09-12T11:12:36;101246.63;;;21.41;100.00
29315;BME280;16320;53.954;9.506;2023-09-12T11:16:10;101256.06;;;21.35;100.00
29315;BME280;16320;53.954;9.506;2023-09-12T11:19:21;101245.91;;;21.29;100.00
29315;BME280;16320;53.954;9.506;2023-09-12T11:22:30;101244.50;;;21.25;100.00
29315;BME280;16320;53.954;9.506;2023-09-12T11:25:36;101244.19;;;21.28;100.00
29315;BME280;16320;53.954;9.506;2023-09-12T11:28:40;101254.47;;;21.33;100.00
29315;BME280;16320;53.954;9.506;2023-09-12T11:31:58;101263.38;;;21.33;100.00
29315;BME280;16320;53.954;9.506;2023-09-12T11:35:07;101262.38;;;21.34;100.00
29315;BME280;16320;53.954;9.506;2023-09-12T11:38:29;101229.88;;;21.29;100.00
29315;BME280;16320;53.954;9.506;2023-09-12T11:41:41;101226.25;;;21.40;100.00
29315;BME280;16320;53.954;9.506;2023-09-12T11:44:46;101220.31;;;21.46;100.00
29315;BME280;16320;53.954;9.506;2023-09-12T11:47:50;101200.41;;;21.50;100.00
29315;BME280;16320;53.954;9.506;2023-09-12T11:50:56;101186.91;;;21.62;100.00
29315;BME280;16320;53.954;9.506;2023-09-12T11:54:01;101192.81;;;21.65;100.00
29315;BME280;16320;53.954;9.506;2023-09-12T11:57:10;101195.34;;;21.67;100.00
29315;BME280;16320;53.954;9.506;2023-09-12T12:00:16;101197.59;;;21.62;100.00
29315;BME280;16320;53.954;9.506;2023-09-12T12:03:26;101185.78;;;21.54;100.00
29315;BME280;16320;53.954;9.506;2023-09-12T12:06:32;101200.84;;;21.65;100.00
29315;BME280;16320;53.954;9.506;2023-09-12T12:09:39;101202.81;;;21.63;100.00
29315;BME280;16320;53.954;9.506;2023-09-12T12:12:45;101183.00;;;21.66;100.00
29315;BME280;16320;53.954;9.506;2023-09-12T12:15:51;101170.88;;;21.62;100.00
29315;BME280;16320;53.954;9.506;2023-09-12T12:18:55;101167.22;;;21.63;100.00
29315;BME280;16320;53.954;9.506;2023-09-12T12:22:01;101164.09;;;21.57;100.00
29315;BME280;16320;53.954;9.506;2023-09-12T12:25:07;101172.28;;;21.56;100.00
29315;BME280;16320;53.954;9.506;2023-09-12T12:28:12;101181.56;;;21.52;100.00
29315;BME280;16320;53.954;9.506;2023-09-12T12:31:17;101196.16;;;21.48;100.00
29315;BME280;16320;53.954;9.506;2023-09-12T12:34:22;101204.19;;;21.48;100.00
29315;BME280;16320;53.954;9.506;2023-09-12T12:37:54;101213.44;;;21.44;100.00
29315;BME280;16320;53.954;9.506;2023-09-12T12:41:09;101187.41;;;21.36;100.00
29315;BME280;16320;53.954;9.506;2023-09-12T12:44:13;101166.03;;;21.46;100.00
29315;BME280;16320;53.954;9.506;2023-09-12T12:47:21;101148.25;;;21.66;100.00
29315;BME280;16320;53.954;9.506;2023-09-12T12:50:27;101128.91;;;21.82;100.00
29315;BME280;16320;53.954;9.506;2023-09-12T12:53:49;101080.75;;;22.01;100.00
29315;BME280;16320;53.954;9.506;2023-09-12T12:56:58;101074.78;;;22.17;100.00
29315;BME280;16320;53.954;9.506;2023-09-12T13:00:11;101089.97;;;22.26;100.00
29315;BME280;16320;53.954;9.506;2023-09-12T13:03:16;101096.97;;;22.27;100.00
29315;BME280;16320;53.954;9.506;2023-09-12T13:06:22;101077.84;;;22.32;100.00
29315;BME280;16320;53.954;9.506;2023-09-12T13:09:27;101079.84;;;22.30;100.00
29315;BME280;16320;53.954;9.506;2023-09-12T13:12:32;101097.31;;;22.24;100.00
29315;BME280;16320;53.954;9.506;2023-09-12T13:15:36;101099.25;;;22.32;100.00
29315;BME280;16320;53.954;9.506;2023-09-12T13:18:41;101102.34;;;22.37;100.00
29315;BME280;16320;53.954;9.506;2023-09-12T13:21:46;101112.75;;;22.40;100.00
29315;BME280;16320;53.954;9.506;2023-09-12T13:24:51;101108.28;;;22.31;100.00
29315;BME280;16320;53.954;9.506;2023-09-12T13:27:55;101108.00;;;22.24;100.00
29315;BME280;16320;53.954;9.506;2023-09-12T13:30:59;101117.28;;;22.30;100.00
29315;BME280;16320;53.954;9.506;2023-09-12T13:34:04;101111.66;;;22.23;100.00
29315;BME280;16320;53.954;9.506;2023-09-12T13:37:09;101104.06;;;22.19;100.00
29315;BME280;16320;53.954;9.506;2023-09-12T13:40:16;101104.19;;;22.27;100.00
29315;BME280;16320;53.954;9.506;2023-09-12T13:43:21;101125.88;;;22.24;100.00
29315;BME280;16320;53.954;9.506;2023-09-12T13:46:26;101099.88;;;22.16;100.00
29315;BME280;16320;53.954;9.506;2023-09-12T13:49:31;101071.38;;;22.25;100.00
29315;BME280;16320;53.954;9.506;2023-09-12T13:52:35;101088.56;;;22.22;100.00
29315;BME280;16320;53.954;9.506;2023-09-12T13:55:40;101099.28;;;22.12;100.00
29315;BME280;16320;53.954;9.506;2023-09-12T13:58:53;101121.88;;;22.00;100.00
29315;BME280;16320;53.954;9.506;2023-09-12T14:01:58;101122.16;;;21.97;100.00
29315;BME280;16320;53.954;9.506;2023-09-12T14:05:04;101079.78;;;22.02;100.00
29315;BME280;16320;53.954;9.506;2023-09-12T14:08:16;101092.84;;;22.05;100.00
29315;BME280;16320;53.954;9.506;2023-09-12T14:11:21;101066.41;;;22.02;100.00
29315;BME280;16320;53.954;9.506;2023-09-12T14:14:37;101073.16;;;22.06;100.00
29315;BME280;16320;53.954;9.506;2023-09-12T14:17:42;101065.28;;;22.05;100.00
29315;BME280;16320;53.954;9.506;2023-09-12T14:20:59;101087.22;;;22.08;100.00
29315;BME280;16320;53.954;9.506;2023-09-12T14:24:05;101079.88;;;22.10;100.00
29315;BME280;16320;53.954;9.506;2023-09-12T14:27:11;101088.44;;;22.14;100.00
29315;BME280;16320;53.954;9.506;2023-09-12T14:30:29;101138.72;;;22.10;100.00
29315;BME280;16320;53.954;9.506;2023-09-12T14:33:40;101171.69;;;22.01;100.00
29315;BME280;16320;53.954;9.506;2023-09-12T14:36:45;101160.00;;;22.02;100.00
29315;BME280;16320;53.954;9.506;2023-09-12T14:39:53;101166.44;;;22.19;100.00
29315;BME280;16320;53.954;9.506;2023-09-12T14:42:58;101160.66;;;22.24;100.00
29315;BME280;16320;53.954;9.506;2023-09-12T14:46:02;101144.06;;;22.10;100.00
29315;BME280;16320;53.954;9.506;2023-09-12T14:49:08;101126.94;;;22.03;100.00
29315;BME280;16320;53.954;9.506;2023-09-12T14:52:14;101117.94;;;21.94;100.00
29315;BME280;16320;53.954;9.506;2023-09-12T14:55:29;101102.75;;;21.95;100.00
29315;BME280;16320;53.954;9.506;2023-09-12T14:58:33;101114.56;;;21.92;100.00
29315;BME280;16320;53.954;9.506;2023-09-12T15:01:39;101080.78;;;21.82;100.00
29315;BME280;16320;53.954;9.506;2023-09-12T15:04:43;101050.56;;;21.81;100.00
29315;BME280;16320;53.954;9.506;2023-09-12T15:07:48;101068.97;;;21.84;100.00
29315;BME280;16320;53.954;9.506;2023-09-12T15:10:52;101082.78;;;21.80;100.00
29315;BME280;16320;53.954;9.506;2023-09-12T15:13:58;101072.09;;;21.80;100.00
29315;BME280;16320;53.954;9.506;2023-09-12T15:17:02;101082.38;;;21.74;100.00
29315;BME280;16320;53.954;9.506;2023-09-12T15:20:08;101102.47;;;21.69;100.00
29315;BME280;16320;53.954;9.506;2023-09-12T15:23:13;101124.47;;;21.63;100.00
29315;BME280;16320;53.954;9.506;2023-09-12T15:26:18;101133.59;;;21.60;100.00
29315;BME280;16320;53.954;9.506;2023-09-12T15:29:22;101144.44;;;21.58;100.00
29315;BME280;16320;53.954;9.506;2023-09-12T15:32:28;101155.66;;;21.62;100.00
29315;BME280;16320;53.954;9.506;2023-09-12T15:35:32;101114.88;;;21.60;100.00
29315;BME280;16320;53.954;9.506;2023-09-12T15:38:36;101111.25;;;21.61;100.00
29315;BME280;16320;53.954;9.506;2023-09-12T15:41:41;101099.53;;;21.62;100.00
29315;BME280;16320;53.954;9.506;2023-09-12T15:44:45;101084.78;;;21.58;100.00
29315;BME280;16320;53.954;9.506;2023-09-12T15:48:06;101081.13;;;21.59;100.00
29315;BME280;16320;53.954;9.506;2023-09-12T15:51:10;101094.34;;;21.51;100.00
29315;BME280;16320;53.954;9.506;2023-09-12T15:54:15;101116.59;;;21.51;100.00
29315;BME280;16320;53.954;9.506;2023-09-12T15:57:20;101129.38;;;21.48;100.00
29315;BME280;16320;53.954;9.506;2023-09-12T16:00:24;101139.19;;;21.47;100.00
29315;BME280;16320;53.954;9.506;2023-09-12T16:03:32;101140.75;;;21.40;100.00
29315;BME280;16320;53.954;9.506;2023-09-12T16:06:37;101143.69;;;21.37;100.00
29315;BME280;16320;53.954;9.506;2023-09-12T16:09:41;101147.19;;;21.37;100.00